createdAt,value
2023-05-10T00:01:25.273Z,14.52
2023-05-10T00:05:07.865Z,16.15
2023-05-10T00:08:49.866Z,16.40
2023-05-10T00:12:31.772Z,13.80
2023-05-10T00:16:14.211Z,15.32
2023-05-10T00:19:56.199Z,10.18
2023-05-10T00:23:38.602Z,9.60
2023-05-10T00:27:20.621Z,12.88
2023-05-10T00:31:02.611Z,13.02
2023-05-10T00:34:44.548Z,15.07
2023-05-10T00:38:26.796Z,13.00
2023-05-10T00:42:08.771Z,11.57
2023-05-10T00:45:51.229Z,12.70
2023-05-10T00:49:33.256Z,14.40
2023-05-10T00:53:16.152Z,15.00
2023-05-10T00:56:58.411Z,11.85
2023-05-10T01:00:44.512Z,11.77
2023-05-10T01:04:26.763Z,13.23
2023-05-10T01:08:09.844Z,11.75
2023-05-10T01:11:51.864Z,12.32
2023-05-10T01:15:34.268Z,8.80
2023-05-10T01:19:25.955Z,9.88
2023-05-10T01:23:26.385Z,13.45
2023-05-10T01:27:45.940Z,15.43
2023-05-10T01:31:49.379Z,13.02
2023-05-10T01:35:42.867Z,10.43
2023-05-10T01:39:36.785Z,10.38
2023-05-10T01:43:24.184Z,11.77
2023-05-10T01:47:14.003Z,10.07
2023-05-10T01:50:57.734Z,12.38
2023-05-10T01:54:50.276Z,10.30
2023-05-10T01:58:34.837Z,9.77
2023-05-10T02:02:18.320Z,8.02
2023-05-10T02:06:00.781Z,10.63
2023-05-10T02:09:48.958Z,8.27
2023-05-10T02:13:35.500Z,10.88
2023-05-10T02:17:17.850Z,7.43
2023-05-10T02:21:01.277Z,7.63
2023-05-10T02:24:44.761Z,8.35
2023-05-10T02:28:27.964Z,10.70
2023-05-10T02:32:12.665Z,10.77
2023-05-10T02:35:55.651Z,7.40
2023-05-10T02:39:39.505Z,15.55
2023-05-10T02:43:23.508Z,15.38
2023-05-10T02:47:05.538Z,20.88
2023-05-10T02:50:52.512Z,18.10
2023-05-10T02:54:42.554Z,17.63
2023-05-10T02:58:24.557Z,14.95
2023-05-10T03:02:07.354Z,14.35
2023-05-10T03:05:49.269Z,15.50
2023-05-10T03:09:32.436Z,15.25
2023-05-10T03:13:33.808Z,13.98
2023-05-10T03:17:26.747Z,18.98
2023-05-10T03:21:13.380Z,12.25
2023-05-10T03:24:58.641Z,16.20
2023-05-10T03:28:41.342Z,16.15
2023-05-10T03:32:24.242Z,15.57
2023-05-10T03:36:06.393Z,15.95
2023-05-10T03:39:48.382Z,16.75
2023-05-10T03:43:30.504Z,13.88
2023-05-10T03:47:12.429Z,16.80
2023-05-10T03:50:54.353Z,15.57
2023-05-10T03:54:36.300Z,16.95
2023-05-10T03:58:18.280Z,20.52
2023-05-10T04:02:00.355Z,22.92
2023-05-10T04:05:42.355Z,23.85
2023-05-10T04:09:24.333Z,19.83
2023-05-10T04:13:06.355Z,20.63
2023-05-10T04:16:48.485Z,28.48
2023-05-10T04:20:30.478Z,21.50
2023-05-10T04:24:13.574Z,23.63
2023-05-10T04:27:55.571Z,15.52
2023-05-10T04:31:37.875Z,16.10
2023-05-10T04:35:19.805Z,15.13
2023-05-10T04:39:01.745Z,23.17
2023-05-10T04:42:45.059Z,20.60
2023-05-10T04:46:27.075Z,20.55
2023-05-10T04:50:09.401Z,25.45
2023-05-10T04:54:04.564Z,20.75
2023-05-10T04:57:47.833Z,24.58
2023-05-10T05:01:29.827Z,16.15
2023-05-10T05:05:11.894Z,16.83
2023-05-10T05:08:54.205Z,14.43
2023-05-10T05:12:36.570Z,17.27
2023-05-10T05:16:18.627Z,21.90
2023-05-10T05:20:00.564Z,15.27
2023-05-10T05:23:42.510Z,14.98
2023-05-10T05:27:25.473Z,17.30
2023-05-10T05:31:11.382Z,16.02
2023-05-10T05:34:53.426Z,18.87
2023-05-10T05:38:35.437Z,13.60
2023-05-10T05:42:18.806Z,17.42
2023-05-10T05:46:00.772Z,14.40
2023-05-10T05:49:42.800Z,11.93
2023-05-10T05:53:25.347Z,14.77
2023-05-10T05:57:07.496Z,10.32
2023-05-10T06:00:49.630Z,14.73
2023-05-10T06:04:31.634Z,11.50
2023-05-10T06:08:13.648Z,12.40
2023-05-10T06:11:55.567Z,10.43
2023-05-10T06:15:37.504Z,14.48
2023-05-10T06:19:19.512Z,13.57
2023-05-10T06:23:01.474Z,13.38
2023-05-10T06:26:43.388Z,9.30
2023-05-10T06:30:29.322Z,10.65
2023-05-10T06:34:12.760Z,12.50
2023-05-10T06:37:54.666Z,14.85
2023-05-10T06:41:36.668Z,10.63
2023-05-10T06:45:19.048Z,10.23
2023-05-10T06:49:01.198Z,7.55
2023-05-10T06:52:44.149Z,11.18
2023-05-10T06:56:26.192Z,7.78
2023-05-10T07:00:10.656Z,7.50
2023-05-10T07:03:53.209Z,8.77
2023-05-10T07:07:35.158Z,7.90
2023-05-10T07:11:17.387Z,12.00
2023-05-10T07:14:59.359Z,9.82
2023-05-10T07:18:41.366Z,8.13
2023-05-10T07:22:23.422Z,7.18
2023-05-10T07:26:05.434Z,9.50
2023-05-10T07:29:47.357Z,9.63
2023-05-10T07:33:29.297Z,9.88
2023-05-10T07:37:11.273Z,8.35
2023-05-10T07:40:53.274Z,8.13
2023-05-10T07:44:35.211Z,7.70
2023-05-10T07:48:17.124Z,9.10
2023-05-10T07:51:59.306Z,7.15
2023-05-10T07:55:41.363Z,8.13
2023-05-10T07:59:23.295Z,8.60
2023-05-10T08:03:05.322Z,6.72
2023-05-10T08:06:47.337Z,6.57
2023-05-10T08:10:29.426Z,6.82
2023-05-10T08:14:11.446Z,6.57
2023-05-10T08:17:53.801Z,11.82
2023-05-10T08:21:36.773Z,9.50
2023-05-10T08:25:19.072Z,8.45
2023-05-10T08:29:01.314Z,9.45
2023-05-10T08:32:43.273Z,8.75
2023-05-10T08:36:25.518Z,8.90
2023-05-10T08:40:08.307Z,10.95
2023-05-10T08:43:52.129Z,11.50
2023-05-10T08:47:36.003Z,10.13
2023-05-10T08:51:23.024Z,9.98
2023-05-10T08:55:05.245Z,7.82
2023-05-10T08:58:47.349Z,5.35
2023-05-10T09:02:29.435Z,8.13
2023-05-10T09:06:14.234Z,9.88
2023-05-10T09:09:56.625Z,8.93
2023-05-10T09:13:38.796Z,5.47
2023-05-10T09:17:21.250Z,8.73
2023-05-10T09:21:03.408Z,14.73
2023-05-10T09:24:46.410Z,12.68
2023-05-10T09:28:28.651Z,11.50
2023-05-10T09:32:10.575Z,6.70
2023-05-10T09:35:53.588Z,9.20
2023-05-10T09:39:39.449Z,9.40
2023-05-10T09:43:21.862Z,6.50
2023-05-10T09:47:04.258Z,9.85
2023-05-10T09:50:46.182Z,8.00
2023-05-10T09:54:28.168Z,8.43
2023-05-10T09:58:12.800Z,8.40
2023-05-10T10:01:58.214Z,5.75
2023-05-10T10:05:43.474Z,7.93
2023-05-10T10:09:26.185Z,6.65
2023-05-10T10:13:08.875Z,7.82
2023-05-10T10:17:05.721Z,8.48
2023-05-10T10:20:49.937Z,6.65
2023-05-10T10:24:32.009Z,8.30
2023-05-10T10:28:22.767Z,8.55
2023-05-10T10:32:27.561Z,5.85
2023-05-10T10:36:09.690Z,6.35
2023-05-10T10:39:51.757Z,5.50
2023-05-10T10:43:33.774Z,4.95
2023-05-10T10:47:19.842Z,5.25
2023-05-10T10:51:01.905Z,6.15
2023-05-10T10:54:52.361Z,5.05
2023-05-10T10:58:35.320Z,6.47
2023-05-10T11:02:42.571Z,6.00
2023-05-10T11:06:36.120Z,6.13
2023-05-10T11:10:22.002Z,5.32
2023-05-10T11:14:06.461Z,6.38
2023-05-10T11:17:53.162Z,6.05
2023-05-10T11:21:46.827Z,4.93
2023-05-10T11:25:29.317Z,4.85
2023-05-10T11:29:13.243Z,3.95
2023-05-10T11:32:55.272Z,4.13
2023-05-10T11:36:37.874Z,7.50
2023-05-10T11:40:20.250Z,5.72
2023-05-10T11:44:03.306Z,4.40
2023-05-10T11:47:45.396Z,5.55
2023-05-10T11:51:27.406Z,4.35
2023-05-10T11:55:09.532Z,4.47
2023-05-10T11:58:56.935Z,7.70
2023-05-10T12:02:39.224Z,5.68
2023-05-10T12:06:22.293Z,4.97
2023-05-10T12:10:09.556Z,4.93
2023-05-10T12:13:51.902Z,4.55
2023-05-10T12:17:33.963Z,5.22
2023-05-10T12:21:16.722Z,3.15
2023-05-10T12:25:00.160Z,3.17
2023-05-10T12:28:42.167Z,3.92
2023-05-10T12:32:39.791Z,3.10
2023-05-10T12:36:24.934Z,5.07
2023-05-10T12:40:09.319Z,2.40
2023-05-10T12:43:52.336Z,4.22
2023-05-10T12:47:34.497Z,4.60
2023-05-10T12:51:20.418Z,2.65
2023-05-10T12:55:04.185Z,3.90
2023-05-10T12:58:49.198Z,4.47
2023-05-10T13:02:31.342Z,2.65
2023-05-10T13:06:14.462Z,2.95
2023-05-10T13:09:56.487Z,4.68
2023-05-10T13:13:38.423Z,2.53
2023-05-10T13:17:20.432Z,3.08
2023-05-10T13:21:04.968Z,2.83
2023-05-10T13:24:46.942Z,1.75
2023-05-10T13:28:28.892Z,3.13
2023-05-10T13:32:11.075Z,1.40
2023-05-10T13:35:54.417Z,3.63
2023-05-10T13:39:38.664Z,1.42
2023-05-10T13:43:20.896Z,2.85
2023-05-10T13:47:02.900Z,1.23
2023-05-10T13:50:44.841Z,1.48
2023-05-10T13:54:30.470Z,4.05
2023-05-10T13:58:12.497Z,3.38
2023-05-10T14:01:54.572Z,2.22
2023-05-10T14:05:36.605Z,1.27
2023-05-10T14:09:18.519Z,2.20
2023-05-10T14:13:00.586Z,1.73
2023-05-10T14:16:46.165Z,1.20
2023-05-10T14:20:28.191Z,0.85
2023-05-10T14:24:10.249Z,1.52
2023-05-10T14:27:52.425Z,1.95
2023-05-10T14:31:34.397Z,1.23
2023-05-10T14:35:19.178Z,1.52
2023-05-10T14:39:01.724Z,1.30
2023-05-10T14:42:44.248Z,1.70
2023-05-10T14:46:26.252Z,1.35
2023-05-10T14:50:09.120Z,1.42
2023-05-10T14:53:51.078Z,2.47
2023-05-10T14:57:33.386Z,1.60
2023-05-10T15:01:15.358Z,3.00
2023-05-10T15:04:58.586Z,1.23
2023-05-10T15:08:40.835Z,0.90
2023-05-10T15:12:22.872Z,1.42
2023-05-10T15:16:04.960Z,3.00
2023-05-10T15:19:46.960Z,2.65
2023-05-10T15:23:29.872Z,1.00
2023-05-10T15:27:11.940Z,3.00
2023-05-10T15:30:53.986Z,1.20
2023-05-10T15:34:37.173Z,1.77
2023-05-10T15:38:19.260Z,1.13
2023-05-10T15:42:02.360Z,3.30
2023-05-10T15:45:44.513Z,1.63
2023-05-10T15:49:26.824Z,2.42
2023-05-10T15:53:08.824Z,2.83
2023-05-10T15:56:50.762Z,1.20
2023-05-10T16:00:32.749Z,3.20
2023-05-10T16:04:14.814Z,2.25
2023-05-10T16:07:56.800Z,1.80
2023-05-10T16:11:38.837Z,1.58
2023-05-10T16:15:21.985Z,2.08
2023-05-10T16:19:04.484Z,0.40
2023-05-10T16:22:46.586Z,1.67
2023-05-10T16:26:28.538Z,0.55
2023-05-10T16:30:10.778Z,3.05
2023-05-10T16:33:52.734Z,1.67
2023-05-10T16:37:34.818Z,1.10
2023-05-10T16:41:17.011Z,1.65
2023-05-10T16:44:59.059Z,1.73
2023-05-10T16:48:41.171Z,2.33
2023-05-10T16:52:23.980Z,2.40
2023-05-10T16:56:06.224Z,3.15
2023-05-10T16:59:48.450Z,2.35
2023-05-10T17:03:30.456Z,1.30
2023-05-10T17:07:13.345Z,1.45
2023-05-10T17:10:56.356Z,1.55
2023-05-10T17:14:38.631Z,1.27
2023-05-10T17:18:20.584Z,1.77
2023-05-10T17:22:02.555Z,1.60
2023-05-10T17:25:44.687Z,2.83
2023-05-10T17:29:28.515Z,2.65
2023-05-10T17:33:10.701Z,2.63
2023-05-10T17:36:52.753Z,4.03
2023-05-10T17:40:34.717Z,2.10
2023-05-10T17:44:16.705Z,3.47
2023-05-10T17:47:58.718Z,2.60
2023-05-10T17:51:44.072Z,2.65
2023-05-10T17:55:27.221Z,3.40
2023-05-10T17:59:09.224Z,1.30
2023-05-10T18:02:51.325Z,1.30
2023-05-10T18:06:37.254Z,1.75
2023-05-10T18:10:19.389Z,2.63
2023-05-10T18:14:01.320Z,3.28
2023-05-10T18:17:43.297Z,1.88
2023-05-10T18:21:25.269Z,4.07
2023-05-10T18:25:08.608Z,3.42
2023-05-10T18:28:50.610Z,3.28
2023-05-10T18:32:32.585Z,4.43
2023-05-10T18:36:14.900Z,2.38
2023-05-10T18:39:57.749Z,3.40
2023-05-10T18:43:39.750Z,5.68
2023-05-10T18:47:21.983Z,3.13
2023-05-10T18:51:04.353Z,4.38
2023-05-10T18:54:46.334Z,2.65
2023-05-10T18:58:28.964Z,1.52
2023-05-10T19:02:11.216Z,2.17
2023-05-10T19:05:53.265Z,3.58
2023-05-10T19:09:35.297Z,4.35
2023-05-10T19:13:17.671Z,3.78
2023-05-10T19:16:59.625Z,3.80
2023-05-10T19:20:42.561Z,5.90
2023-05-10T19:24:25.817Z,3.08
2023-05-10T19:28:09.596Z,4.43
2023-05-10T19:31:52.530Z,7.07
2023-05-10T19:35:34.673Z,7.18
2023-05-10T19:39:16.768Z,7.38
2023-05-10T19:42:58.724Z,5.90
2023-05-10T19:46:40.857Z,7.50
2023-05-10T19:50:22.883Z,6.13
2023-05-10T19:54:04.870Z,7.20
2023-05-10T19:57:46.963Z,7.15
2023-05-10T20:01:28.963Z,4.05
2023-05-10T20:05:11.010Z,11.70
2023-05-10T20:08:52.938Z,6.07
2023-05-10T20:12:34.885Z,5.68
2023-05-10T20:16:16.923Z,10.07
2023-05-10T20:19:58.901Z,8.80
2023-05-10T20:23:40.829Z,9.40
2023-05-10T20:27:22.749Z,8.65
2023-05-10T20:31:04.910Z,8.02
2023-05-10T20:34:46.887Z,11.23
2023-05-10T20:38:28.864Z,7.43
2023-05-10T20:42:10.826Z,7.05
2023-05-10T20:45:54.122Z,9.05
2023-05-10T20:49:37.961Z,12.65
2023-05-10T20:53:19.927Z,6.75
2023-05-10T20:57:02.169Z,9.30
2023-05-10T21:00:44.114Z,7.35
2023-05-10T21:04:26.129Z,9.38
2023-05-10T21:08:08.048Z,11.45
2023-05-10T21:11:50.769Z,10.02
2023-05-10T21:15:32.759Z,7.35
2023-05-10T21:19:17.045Z,8.27
2023-05-10T21:22:58.981Z,8.00
2023-05-10T21:26:41.040Z,9.30
2023-05-10T21:30:23.535Z,7.53
2023-05-10T21:34:05.526Z,7.60
2023-05-10T21:37:47.512Z,9.73
2023-05-10T21:41:29.460Z,12.95
2023-05-10T21:45:11.704Z,7.05
2023-05-10T21:48:54.076Z,7.00
2023-05-10T21:52:36.562Z,10.05
2023-05-10T21:56:18.494Z,8.02
2023-05-10T22:00:00.445Z,7.55
2023-05-10T22:03:42.504Z,7.32
2023-05-10T22:07:24.492Z,8.18
2023-05-10T22:11:06.433Z,9.82
2023-05-10T22:14:51.842Z,12.13
2023-05-10T22:18:41.537Z,8.95
2023-05-10T22:22:23.525Z,12.68
2023-05-10T22:26:05.525Z,10.05
2023-05-10T22:29:48.672Z,7.80
2023-05-10T22:33:30.607Z,9.02
2023-05-10T22:37:14.865Z,10.77
2023-05-10T22:40:57.282Z,7.47
2023-05-10T22:44:39.351Z,11.68
2023-05-10T22:48:22.144Z,11.23
2023-05-10T22:52:04.140Z,13.63
2023-05-10T22:55:47.151Z,8.70
2023-05-10T22:59:29.091Z,9.23
2023-05-10T23:03:11.067Z,8.45
2023-05-10T23:06:53.717Z,10.65
2023-05-10T23:10:37.876Z,6.68
2023-05-10T23:14:19.845Z,11.55
2023-05-10T23:18:02.219Z,9.23
2023-05-10T23:21:44.229Z,11.02
2023-05-10T23:25:27.574Z,8.50
2023-05-10T23:29:09.491Z,9.88
2023-05-10T23:32:51.440Z,7.97
2023-05-10T23:36:33.604Z,10.05
2023-05-10T23:40:16.401Z,6.82
2023-05-10T23:43:58.536Z,10.63
2023-05-10T23:47:40.593Z,9.98
2023-05-10T23:51:22.613Z,9.25
2023-05-10T23:55:04.797Z,8.88
2023-05-10T23:58:46.751Z,9.32
